createdAt,value
2018-08-25T00:01:17.436Z,38.80
2018-08-25T00:03:44.708Z,38.90
2018-08-25T00:06:11.993Z,39.00
2018-08-25T00:08:39.203Z,38.40
2018-08-25T00:11:06.840Z,38.70
2018-08-25T00:13:34.068Z,38.50
2018-08-25T00:16:01.322Z,39.30
2018-08-25T00:18:29.105Z,38.90
2018-08-25T00:20:56.360Z,39.00
2018-08-25T00:23:23.648Z,39.40
2018-08-25T00:25:50.821Z,39.60
2018-08-25T00:28:18.072Z,39.10
2018-08-25T00:31:50.191Z,39.50
2018-08-25T00:34:17.400Z,39.50
2018-08-25T00:36:44.619Z,39.70
2018-08-25T00:39:11.891Z,39.40
2018-08-25T00:41:39.072Z,39.60
2018-08-25T00:44:06.322Z,39.50
2018-08-25T00:46:33.628Z,39.70
2018-08-25T00:49:00.964Z,39.90
2018-08-25T00:51:28.513Z,40.00
2018-08-25T00:53:55.732Z,40.00
2018-08-25T00:56:22.978Z,39.50
2018-08-25T00:58:50.184Z,39.60
2018-08-25T01:01:17.448Z,39.40
2018-08-25T01:03:44.668Z,39.60
2018-08-25T01:06:11.878Z,39.90
2018-08-25T01:08:39.060Z,40.00
2018-08-25T01:11:06.374Z,39.50
2018-08-25T01:13:33.613Z,39.60
2018-08-25T01:16:00.828Z,40.10
2018-08-25T01:18:28.008Z,39.20
2018-08-25T01:20:55.256Z,38.40
2018-08-25T01:23:22.522Z,39.30
2018-08-25T01:25:49.758Z,39.00
2018-08-25T01:28:16.981Z,39.20
2018-08-25T01:30:44.233Z,38.90
2018-08-25T01:33:11.442Z,39.00
2018-08-25T01:35:38.692Z,39.50
2018-08-25T01:38:06.040Z,39.00
2018-08-25T01:40:33.279Z,38.80
2018-08-25T01:43:00.508Z,38.70
2018-08-25T01:45:27.636Z,38.50
2018-08-25T01:47:54.849Z,38.80
2018-08-25T01:50:22.118Z,39.00
2018-08-25T01:52:49.345Z,38.90
2018-08-25T01:55:16.606Z,38.70
2018-08-25T01:57:43.891Z,38.90
2018-08-25T02:00:11.076Z,39.10
2018-08-25T02:02:38.316Z,38.80
2018-08-25T02:05:05.564Z,38.80
2018-08-25T02:07:33.112Z,39.20
2018-08-25T02:10:00.309Z,39.20
2018-08-25T02:12:27.525Z,39.30
2018-08-25T02:14:54.783Z,39.50
2018-08-25T02:17:22.044Z,40.00
2018-08-25T02:19:49.312Z,39.20
2018-08-25T02:22:16.501Z,39.60
2018-08-25T02:24:43.710Z,39.60
2018-08-25T02:27:11.000Z,39.50
2018-08-25T02:29:38.240Z,39.60
2018-08-25T02:32:05.688Z,40.00
2018-08-25T02:34:32.930Z,39.60
2018-08-25T02:37:00.148Z,39.90
2018-08-25T02:39:27.384Z,40.00
2018-08-25T02:41:54.612Z,39.90
2018-08-25T02:44:21.846Z,40.20
2018-08-25T02:46:49.068Z,40.20
2018-08-25T02:49:16.318Z,40.50
2018-08-25T02:51:43.470Z,40.70
2018-08-25T02:54:10.636Z,40.70
2018-08-25T02:56:37.905Z,40.80
2018-08-25T02:59:05.112Z,40.90
2018-08-25T03:01:32.367Z,40.80
2018-08-25T03:03:59.608Z,41.10
2018-08-25T03:06:26.895Z,41.20
2018-08-25T03:08:54.044Z,41.20
2018-08-25T03:11:21.260Z,41.20
2018-08-25T03:13:48.522Z,41.10
2018-08-25T03:16:15.696Z,41.10
2018-08-25T03:18:42.855Z,41.20
2018-08-25T03:21:10.172Z,41.70
2018-08-25T03:23:37.356Z,41.60
2018-08-25T03:26:04.541Z,41.30
2018-08-25T03:28:31.736Z,41.40
2018-08-25T03:30:58.968Z,41.50
2018-08-25T03:33:26.180Z,41.90
2018-08-25T03:35:53.937Z,41.70
2018-08-25T03:38:21.204Z,41.70
2018-08-25T03:40:48.504Z,42.30
2018-08-25T03:43:15.820Z,42.30
2018-08-25T03:45:43.009Z,42.20
2018-08-25T03:48:10.201Z,42.20
2018-08-25T03:50:37.380Z,42.40
2018-08-25T03:53:05.889Z,42.30
2018-08-25T03:55:33.340Z,42.70
2018-08-25T03:58:00.559Z,43.30
2018-08-25T04:00:27.828Z,42.70
2018-08-25T04:02:55.069Z,42.90
2018-08-25T04:05:22.293Z,42.70
2018-08-25T04:07:49.557Z,43.10
2018-08-25T04:10:16.785Z,42.80
2018-08-25T04:12:44.009Z,43.00
2018-08-25T04:15:11.281Z,43.10
2018-08-25T04:17:38.473Z,43.20
2018-08-25T04:20:05.768Z,43.30
2018-08-25T04:22:32.982Z,43.30
2018-08-25T04:25:00.220Z,43.60
2018-08-25T04:27:27.428Z,43.60
2018-08-25T04:29:54.637Z,43.50
2018-08-25T04:32:21.944Z,43.90
2018-08-25T04:34:49.162Z,44.20
2018-08-25T04:37:16.340Z,44.00
2018-08-25T04:39:43.543Z,44.40
2018-08-25T04:42:10.728Z,44.60
2018-08-25T04:44:37.899Z,44.60
2018-08-25T04:47:05.216Z,44.80
2018-08-25T04:49:32.424Z,44.60
2018-08-25T04:51:59.626Z,44.80
2018-08-25T04:54:26.900Z,44.80
2018-08-25T04:56:54.162Z,45.00
2018-08-25T04:59:21.365Z,45.30
2018-08-25T05:01:48.660Z,45.50
2018-08-25T05:04:15.783Z,45.80
2018-08-25T05:06:43.036Z,45.50
2018-08-25T05:09:10.704Z,45.90
2018-08-25T05:11:38.279Z,45.90
2018-08-25T05:14:05.500Z,46.10
2018-08-25T05:16:32.717Z,46.20
2018-08-25T05:18:59.904Z,46.30
2018-08-25T05:21:27.132Z,46.30
2018-08-25T05:23:54.424Z,46.50
2018-08-25T05:26:21.800Z,46.60
2018-08-25T05:28:49.043Z,46.80
2018-08-25T05:31:16.295Z,46.70
2018-08-25T05:33:43.506Z,46.80
2018-08-25T05:36:10.730Z,46.80
2018-08-25T05:38:37.928Z,46.80
2018-08-25T05:41:05.199Z,47.10
2018-08-25T05:43:32.541Z,47.00
2018-08-25T05:45:59.785Z,47.40
2018-08-25T05:48:27.221Z,47.60
2018-08-25T05:50:54.468Z,48.30
2018-08-25T05:53:24.790Z,48.80
2018-08-25T05:55:52.191Z,49.10
2018-08-25T05:58:19.458Z,50.50
2018-08-25T06:00:46.758Z,50.10
2018-08-25T06:03:13.940Z,50.60
2018-08-25T06:05:41.228Z,50.90
2018-08-25T06:08:08.453Z,51.00
2018-08-25T06:10:35.676Z,52.20
2018-08-25T06:13:02.914Z,51.50
2018-08-25T06:15:30.073Z,52.30
2018-08-25T06:17:57.361Z,52.30
2018-08-25T06:20:24.537Z,52.60
2018-08-25T06:22:52.593Z,53.50
2018-08-25T06:25:19.933Z,53.00
2018-08-25T06:27:47.192Z,53.70
2018-08-25T06:30:14.445Z,54.20
2018-08-25T06:32:41.748Z,53.80
2018-08-25T06:35:08.948Z,53.60
2018-08-25T06:37:36.130Z,53.80
2018-08-25T06:40:03.345Z,53.90
2018-08-25T06:42:30.670Z,54.50
2018-08-25T06:44:57.847Z,54.90
2018-08-25T06:47:25.092Z,55.30
2018-08-25T06:49:52.391Z,55.80
2018-08-25T06:52:19.702Z,56.00
2018-08-25T06:54:46.960Z,56.20
2018-08-25T06:57:14.150Z,56.00
2018-08-25T06:59:41.377Z,55.90
2018-08-25T07:02:08.664Z,57.10
2018-08-25T07:04:35.933Z,57.80
2018-08-25T07:07:03.194Z,57.00
2018-08-25T07:09:30.338Z,57.80
2018-08-25T07:11:57.596Z,57.70
2018-08-25T07:14:24.817Z,62.70
2018-08-25T07:16:52.017Z,60.60
2018-08-25T07:19:19.260Z,60.90
2018-08-25T07:21:46.432Z,59.90
2018-08-25T07:24:13.648Z,59.60
2018-08-25T07:26:40.876Z,59.70
2018-08-25T07:29:08.032Z,59.60
2018-08-25T07:31:36.061Z,59.80
2018-08-25T07:34:03.498Z,59.40
2018-08-25T07:36:30.732Z,59.60
2018-08-25T07:38:58.057Z,59.20
2018-08-25T07:41:25.268Z,58.60
2018-08-25T07:43:52.660Z,58.20
2018-08-25T07:46:19.889Z,59.00
2018-08-25T07:48:47.061Z,59.20
2018-08-25T07:51:14.239Z,60.10
2018-08-25T07:53:41.475Z,59.40
2018-08-25T07:56:08.864Z,59.40
2018-08-25T07:58:36.157Z,59.70
2018-08-25T08:01:03.517Z,59.60
2018-08-25T08:03:30.821Z,59.40
2018-08-25T08:05:57.998Z,60.30
2018-08-25T08:08:25.283Z,59.40
2018-08-25T08:10:52.564Z,59.20
2018-08-25T08:13:19.856Z,60.00
2018-08-25T08:15:47.048Z,59.40
2018-08-25T08:18:14.300Z,59.40
2018-08-25T08:20:41.616Z,59.70
2018-08-25T08:23:08.755Z,59.20
2018-08-25T08:25:35.984Z,59.80
2018-08-25T08:28:04.080Z,59.80
2018-08-25T08:30:31.304Z,59.00
2018-08-25T08:32:58.687Z,58.90
2018-08-25T08:35:25.820Z,60.30
2018-08-25T08:37:53.110Z,59.90
2018-08-25T08:40:20.383Z,59.60
2018-08-25T08:42:47.565Z,59.50
2018-08-25T08:45:14.891Z,59.00
2018-08-25T08:47:42.016Z,58.50
2018-08-25T08:50:09.989Z,59.50
2018-08-25T08:52:37.516Z,60.40
2018-08-25T08:55:05.104Z,60.70
2018-08-25T08:57:32.317Z,60.70
2018-08-25T08:59:59.684Z,61.20
2018-08-25T09:02:26.882Z,60.00
2018-08-25T09:04:54.176Z,59.80
2018-08-25T09:07:21.408Z,59.60
2018-08-25T09:09:48.649Z,58.10
2018-08-25T09:12:15.894Z,59.20
2018-08-25T09:14:43.091Z,58.30
2018-08-25T09:17:10.337Z,58.70
2018-08-25T09:19:37.595Z,58.40
2018-08-25T09:22:04.971Z,58.10
2018-08-25T09:24:32.166Z,57.70
2018-08-25T09:26:59.388Z,58.20
2018-08-25T09:29:26.624Z,57.80
2018-08-25T09:31:53.861Z,57.70
2018-08-25T09:34:21.124Z,57.20
2018-08-25T09:36:48.548Z,58.20
2018-08-25T09:39:15.596Z,58.40
2018-08-25T09:41:42.855Z,58.10
2018-08-25T09:44:10.025Z,57.80
2018-08-25T09:46:37.237Z,56.90
2018-08-25T09:49:04.443Z,57.60
2018-08-25T09:51:31.651Z,57.60
2018-08-25T09:53:58.937Z,57.10
2018-08-25T09:56:26.165Z,56.80
2018-08-25T09:58:53.499Z,55.80
2018-08-25T10:01:26.309Z,55.30
2018-08-25T10:03:53.517Z,55.40
2018-08-25T10:06:20.759Z,54.90
2018-08-25T10:08:47.989Z,55.60
2018-08-25T10:11:15.187Z,53.70
2018-08-25T10:13:42.412Z,54.40
2018-08-25T10:16:09.668Z,53.70
2018-08-25T10:18:36.893Z,52.80
2018-08-25T10:21:04.129Z,52.00
2018-08-25T10:23:31.376Z,51.40
2018-08-25T10:25:58.612Z,51.70
2018-08-25T10:28:25.832Z,52.20
2018-08-25T10:30:53.068Z,52.10
2018-08-25T10:33:20.333Z,50.90
2018-08-25T10:35:49.679Z,50.20
2018-08-25T10:38:16.961Z,50.70
2018-08-25T10:40:44.200Z,50.40
2018-08-25T10:43:11.444Z,50.70
2018-08-25T10:45:38.566Z,50.40
2018-08-25T10:48:05.898Z,50.00
2018-08-25T10:50:33.021Z,49.20
2018-08-25T10:53:00.327Z,49.30
2018-08-25T10:55:27.712Z,48.90
2018-08-25T10:57:55.007Z,48.10
2018-08-25T11:00:22.361Z,48.30
2018-08-25T11:02:49.540Z,45.80
2018-08-25T11:05:16.739Z,46.20
2018-08-25T11:07:43.924Z,45.30
2018-08-25T11:10:11.168Z,44.50
2018-08-25T11:12:38.472Z,43.90
2018-08-25T11:15:05.755Z,43.30
2018-08-25T11:17:32.947Z,44.50
2018-08-25T11:20:00.128Z,43.30
2018-08-25T11:22:27.337Z,43.00
2018-08-25T11:24:54.516Z,43.40
2018-08-25T11:27:25.695Z,43.20
2018-08-25T11:29:53.240Z,42.70
2018-08-25T11:32:20.455Z,43.40
2018-08-25T11:34:47.705Z,43.40
2018-08-25T11:37:15.042Z,41.00
2018-08-25T11:39:42.243Z,40.90
2018-08-25T11:42:09.432Z,41.20
2018-08-25T11:44:36.774Z,41.40
2018-08-25T11:47:10.044Z,41.30
2018-08-25T11:49:37.193Z,42.30
2018-08-25T11:52:04.383Z,42.50
2018-08-25T11:54:31.604Z,42.70
2018-08-25T11:56:58.911Z,42.20
2018-08-25T11:59:26.129Z,42.20
2018-08-25T12:01:53.379Z,42.60
2018-08-25T12:04:20.611Z,42.60
2018-08-25T12:06:47.801Z,41.90
2018-08-25T12:09:14.979Z,42.00
2018-08-25T12:11:42.253Z,41.50
2018-08-25T12:14:09.467Z,41.20
2018-08-25T12:16:36.694Z,41.20
2018-08-25T12:19:03.993Z,40.40
2018-08-25T12:21:31.213Z,40.00
2018-08-25T12:23:58.478Z,40.10
2018-08-25T12:26:25.714Z,41.10
2018-08-25T12:28:52.947Z,40.50
2018-08-25T12:31:20.178Z,40.40
2018-08-25T12:33:47.374Z,40.30
2018-08-25T12:36:14.585Z,40.40
2018-08-25T12:38:41.781Z,40.40
2018-08-25T12:41:08.969Z,40.10
2018-08-25T12:43:36.288Z,40.30
2018-08-25T12:46:03.444Z,40.70
2018-08-25T12:48:30.631Z,40.20
2018-08-25T12:50:57.845Z,40.50
2018-08-25T12:53:25.029Z,40.90
2018-08-25T12:55:52.181Z,41.00
2018-08-25T12:58:19.434Z,40.80
2018-08-25T13:00:46.798Z,40.20
2018-08-25T13:03:14.089Z,40.60
2018-08-25T13:05:41.313Z,40.50
2018-08-25T13:08:08.496Z,40.50
2018-08-25T13:10:35.756Z,40.10
2018-08-25T13:13:03.104Z,39.60
2018-08-25T13:15:30.281Z,39.90
2018-08-25T13:17:57.549Z,40.40
2018-08-25T13:20:24.712Z,40.70
2018-08-25T13:22:51.971Z,40.70
2018-08-25T13:25:19.169Z,40.80
2018-08-25T13:27:46.468Z,40.40
2018-08-25T13:30:13.748Z,40.40
2018-08-25T13:32:40.965Z,40.90
2018-08-25T13:35:08.153Z,40.70
2018-08-25T13:37:35.455Z,41.10
2018-08-25T13:40:02.722Z,40.80
2018-08-25T13:42:29.872Z,40.90
2018-08-25T13:44:57.176Z,40.80
2018-08-25T13:47:24.387Z,40.80
2018-08-25T13:49:51.585Z,41.10
2018-08-25T13:52:18.806Z,40.80
2018-08-25T13:54:46.028Z,40.40
2018-08-25T13:57:13.284Z,40.20
2018-08-25T13:59:40.745Z,40.00
2018-08-25T14:02:08.065Z,39.80
2018-08-25T14:04:35.324Z,39.60
2018-08-25T14:07:02.714Z,38.60
2018-08-25T14:09:29.989Z,39.20
2018-08-25T14:11:57.234Z,38.80
2018-08-25T14:14:24.477Z,38.90
2018-08-25T14:16:51.705Z,38.40
2018-08-25T14:19:18.900Z,37.30
2018-08-25T14:21:46.060Z,38.00
2018-08-25T14:24:13.344Z,39.70
2018-08-25T14:26:40.556Z,38.40
2018-08-25T14:29:07.996Z,38.90
2018-08-25T14:31:35.342Z,38.30
2018-08-25T14:34:02.599Z,38.20
2018-08-25T14:36:29.815Z,37.60
2018-08-25T14:38:57.064Z,38.20
2018-08-25T14:41:24.316Z,37.40
2018-08-25T14:43:51.568Z,38.30
2018-08-25T14:46:18.736Z,37.80
2018-08-25T14:48:45.940Z,37.70
2018-08-25T14:51:13.173Z,38.20
2018-08-25T14:53:40.343Z,38.80
2018-08-25T14:56:07.612Z,38.00
2018-08-25T14:58:34.916Z,37.80
2018-08-25T15:01:02.101Z,37.90
2018-08-25T15:03:29.309Z,38.20
2018-08-25T15:05:56.541Z,37.50
2018-08-25T15:08:23.741Z,36.80
2018-08-25T15:10:50.982Z,37.20
2018-08-25T15:13:18.147Z,37.00
2018-08-25T15:15:45.444Z,36.80
2018-08-25T15:18:12.691Z,37.30
2018-08-25T15:20:39.933Z,37.80
2018-08-25T15:23:07.235Z,37.70
2018-08-25T15:25:34.433Z,37.50
2018-08-25T15:28:01.683Z,37.80
2018-08-25T15:30:28.893Z,38.10
2018-08-25T15:32:56.185Z,38.60
2018-08-25T15:35:23.406Z,38.00
2018-08-25T15:37:50.562Z,38.40
2018-08-25T15:40:17.715Z,38.60
2018-08-25T15:42:45.056Z,38.50
2018-08-25T15:45:12.277Z,38.40
2018-08-25T15:47:39.481Z,38.60
2018-08-25T15:50:06.736Z,38.60
2018-08-25T15:52:33.967Z,38.40
2018-08-25T15:55:01.247Z,38.80
2018-08-25T15:57:28.509Z,38.30
2018-08-25T15:59:55.774Z,38.60
2018-08-25T16:02:23.020Z,38.00
2018-08-25T16:04:50.177Z,38.00
2018-08-25T16:07:17.400Z,38.10
2018-08-25T16:09:44.612Z,38.60
2018-08-25T16:12:11.841Z,38.60
2018-08-25T16:14:39.037Z,38.10
2018-08-25T16:17:06.248Z,38.00
2018-08-25T16:19:33.503Z,38.20
2018-08-25T16:22:00.680Z,37.90
2018-08-25T16:24:27.904Z,38.00
2018-08-25T16:26:55.200Z,38.30
2018-08-25T16:29:22.276Z,38.60
2018-08-25T16:31:49.539Z,38.60
2018-08-25T16:34:16.793Z,38.20
2018-08-25T16:36:43.936Z,38.30
2018-08-25T16:39:11.144Z,38.00
2018-08-25T16:41:38.357Z,38.50
2018-08-25T16:44:05.681Z,37.60
2018-08-25T16:46:32.960Z,37.90
2018-08-25T16:49:00.216Z,37.80
2018-08-25T16:51:28.913Z,38.00
2018-08-25T16:53:56.236Z,37.90
2018-08-25T16:56:23.478Z,38.10
2018-08-25T16:58:51.389Z,38.00
2018-08-25T17:01:18.682Z,38.20
2018-08-25T17:03:45.910Z,38.60
2018-08-25T17:06:13.080Z,37.80
2018-08-25T17:08:40.335Z,37.80
2018-08-25T17:11:07.525Z,37.70
2018-08-25T17:13:34.784Z,37.80
2018-08-25T17:16:02.020Z,38.20
2018-08-25T17:18:29.220Z,38.20
2018-08-25T17:20:56.598Z,38.70
2018-08-25T17:23:23.784Z,39.10
2018-08-25T17:25:50.972Z,39.30
2018-08-25T17:28:18.204Z,39.50
2018-08-25T17:30:45.499Z,39.70
2018-08-25T17:33:12.729Z,39.90
2018-08-25T17:35:39.970Z,40.20
2018-08-25T17:38:07.249Z,40.40
2018-08-25T17:40:34.405Z,40.30
2018-08-25T17:43:01.625Z,40.30
2018-08-25T17:45:28.837Z,40.20
2018-08-25T17:47:55.977Z,40.30
2018-08-25T17:50:23.157Z,40.40
2018-08-25T17:52:50.412Z,41.10
2018-08-25T17:55:17.679Z,41.40
2018-08-25T17:57:45.191Z,41.80
2018-08-25T18:00:13.328Z,43.10
2018-08-25T18:02:40.773Z,43.70
2018-08-25T18:05:08.120Z,44.00
2018-08-25T18:07:35.360Z,43.70
2018-08-25T18:10:02.632Z,44.90
2018-08-25T18:12:33.848Z,45.60
2018-08-25T18:15:01.661Z,46.20
2018-08-25T18:17:28.897Z,46.60
2018-08-25T18:19:56.069Z,46.70
2018-08-25T18:22:23.287Z,46.30
2018-08-25T18:24:50.508Z,46.00
2018-08-25T18:27:18.181Z,45.60
2018-08-25T18:29:45.412Z,46.10
2018-08-25T18:32:13.027Z,45.30
2018-08-25T18:34:40.226Z,45.30
2018-08-25T18:37:07.412Z,45.10
2018-08-25T18:39:34.596Z,44.40
2018-08-25T18:42:01.849Z,44.30
2018-08-25T18:44:29.025Z,43.80
2018-08-25T18:46:56.256Z,44.00
2018-08-25T18:49:23.492Z,43.10
2018-08-25T18:51:50.765Z,42.80
2018-08-25T18:54:18.062Z,42.80
2018-08-25T18:56:45.284Z,42.60
2018-08-25T18:59:12.664Z,42.00
2018-08-25T19:01:39.855Z,42.00
2018-08-25T19:04:07.068Z,42.30
2018-08-25T19:06:34.313Z,42.60
2018-08-25T19:09:01.488Z,42.60
2018-08-25T19:11:28.773Z,42.50
2018-08-25T19:13:55.956Z,42.40
2018-08-25T19:16:23.164Z,42.70
2018-08-25T19:18:50.361Z,42.60
2018-08-25T19:21:17.572Z,42.60
2018-08-25T19:23:44.883Z,42.50
2018-08-25T19:26:12.116Z,42.30
2018-08-25T19:28:39.331Z,42.90
2018-08-25T19:31:06.480Z,43.20
2018-08-25T19:33:33.809Z,43.60
2018-08-25T19:36:01.011Z,43.90
2018-08-25T19:38:28.201Z,44.10
2018-08-25T19:40:55.388Z,44.30
2018-08-25T19:43:22.785Z,44.40
2018-08-25T19:45:50.029Z,44.50
2018-08-25T19:48:17.248Z,44.60
2018-08-25T19:50:44.544Z,44.90
2018-08-25T19:53:11.840Z,45.30
2018-08-25T19:55:39.041Z,44.80
2018-08-25T19:58:06.229Z,44.90
2018-08-25T20:00:33.520Z,45.30
2018-08-25T20:03:00.773Z,45.00
2018-08-25T20:05:28.015Z,45.10
2018-08-25T20:07:55.312Z,45.20
2018-08-25T20:10:22.516Z,45.50
2018-08-25T20:12:49.705Z,45.30
2018-08-25T20:15:17.288Z,44.80
2018-08-25T20:17:44.550Z,44.80
2018-08-25T20:20:11.825Z,44.60
2018-08-25T20:22:39.009Z,44.30
2018-08-25T20:25:06.906Z,44.20
2018-08-25T20:27:34.121Z,44.20
2018-08-25T20:30:01.309Z,44.30
2018-08-25T20:32:28.560Z,44.20
2018-08-25T20:34:55.772Z,44.50
2018-08-25T20:37:22.932Z,44.40
2018-08-25T20:39:50.150Z,44.30
2018-08-25T20:42:17.412Z,44.20
2018-08-25T20:44:44.623Z,44.40
2018-08-25T20:47:11.794Z,44.40
2018-08-25T20:49:39.165Z,44.40
2018-08-25T20:52:06.357Z,44.60
2018-08-25T20:54:33.651Z,44.60
2018-08-25T20:57:00.836Z,45.00
2018-08-25T20:59:28.050Z,45.00
2018-08-25T21:01:56.049Z,44.80
2018-08-25T21:04:23.311Z,44.50
2018-08-25T21:06:50.517Z,44.70
2018-08-25T21:09:17.735Z,45.10
2018-08-25T21:11:44.908Z,44.90
2018-08-25T21:14:12.124Z,45.40
2018-08-25T21:16:39.475Z,44.90
2018-08-25T21:19:06.728Z,45.10
2018-08-25T21:21:33.946Z,45.10
2018-08-25T21:24:01.253Z,45.20
2018-08-25T21:26:28.504Z,45.10
2018-08-25T21:28:55.795Z,45.20
2018-08-25T21:31:23.009Z,45.20
2018-08-25T21:33:50.194Z,45.50
2018-08-25T21:36:17.448Z,46.00
2018-08-25T21:38:44.622Z,45.90
2018-08-25T21:41:11.868Z,45.80
2018-08-25T21:43:39.057Z,46.10
2018-08-25T21:46:06.244Z,45.80
2018-08-25T21:48:33.464Z,45.60
2018-08-25T21:51:00.742Z,45.70
2018-08-25T21:53:27.900Z,46.20
2018-08-25T21:55:55.104Z,45.80
2018-08-25T21:58:22.370Z,46.00
2018-08-25T22:00:55.153Z,46.20
2018-08-25T22:03:22.601Z,46.00
2018-08-25T22:05:50.380Z,46.10
2018-08-25T22:08:17.604Z,46.40
2018-08-25T22:10:44.833Z,46.10
2018-08-25T22:13:11.980Z,45.90
2018-08-25T22:15:39.192Z,46.00
2018-08-25T22:18:06.384Z,46.10
2018-08-25T22:20:33.577Z,46.20
2018-08-25T22:23:00.744Z,46.20
2018-08-25T22:25:27.969Z,46.60
2018-08-25T22:27:55.160Z,46.60
2018-08-25T22:30:22.300Z,46.40
2018-08-25T22:32:49.560Z,46.80
2018-08-25T22:35:16.796Z,46.80
2018-08-25T22:37:44.017Z,47.00
2018-08-25T22:40:11.204Z,46.80
2018-08-25T22:42:38.422Z,47.40
2018-08-25T22:45:05.604Z,47.10
2018-08-25T22:47:32.861Z,47.30
2018-08-25T22:50:00.173Z,47.60
2018-08-25T22:52:33.200Z,47.60
2018-08-25T22:55:00.425Z,47.60
2018-08-25T22:57:27.614Z,47.80
2018-08-25T22:59:54.893Z,47.60
2018-08-25T23:02:22.048Z,47.70
2018-08-25T23:04:49.224Z,48.00
2018-08-25T23:07:16.413Z,48.00
2018-08-25T23:09:43.582Z,47.70
2018-08-25T23:12:10.812Z,47.60
2018-08-25T23:14:37.976Z,47.50
2018-08-25T23:17:05.193Z,47.70
2018-08-25T23:19:32.420Z,48.00
2018-08-25T23:21:59.705Z,48.10
2018-08-25T23:24:26.907Z,48.10
2018-08-25T23:26:54.056Z,48.30
2018-08-25T23:29:21.293Z,48.20
2018-08-25T23:31:48.524Z,48.60
2018-08-25T23:34:15.722Z,48.20
2018-08-25T23:36:43.001Z,48.30
2018-08-25T23:39:10.240Z,48.40
2018-08-25T23:41:37.478Z,48.30
2018-08-25T23:44:04.720Z,48.30
2018-08-25T23:46:31.923Z,48.30
2018-08-25T23:48:59.120Z,48.10
2018-08-25T23:51:26.336Z,48.60
2018-08-25T23:53:53.546Z,48.50
2018-08-25T23:56:20.696Z,48.80
2018-08-25T23:58:47.876Z,48.40
